Algona, IA

5:25 PM CDT on April 28, 2017 (GMT -0500)
Algona Municipal

Weather History for KAXA - January, 2013

Change the Weather History Date:

Thursday, January 31, 2013

  Actual Average Record
Temperature  
Mean Temperature 2 °F -  
Max Temperature 8 °F 25 °F 44 °F (2012)
Min Temperature -5 °F 11 °F -13 °F (2004)
Degree Days  
Heating Degree Days 64    
Moisture  
Dew Point -8 °F    
Average Humidity 65    
Maximum Humidity 79    
Minimum Humidity 56    
Precipitation  
Precipitation 0.00 in - - ()
Sea Level Pressure  
Sea Level Pressure 30.05 in    
Wind  
Wind Speed 19 mph (NW)    
Max Wind Speed 26 mph    
Max Gust Speed 38 mph    
Visibility 10 miles    
Events Snow    
Averages and records for this station are not official NWS values.
T = Trace of Precipitation, MM = Missing Value Source: NWS Daily Summary

Daily Weather History Graph

Daily Weather History Graph

Search for Another Location

Airport or City:

Trip Planner

Search our weather history database for the weather conditions in past years. The results will help you decide how hot, cold, wet, or windy it might be!

Date:

Astronomy

Jan. 31, 2013 Rise Set
Actual Time 7:33 AM CST 5:28 PM CST
Civil Twilight 7:02 AM CST 5:58 PM CST
Nautical Twilight 6:28 AM CST 6:32 PM CST
Astronomical Twilight 5:55 AM CST 7:06 PM CST
Moon 10:41 PM CST (1/31) 9:24 AM CST (1/31)
Length of Visible Light 10h 56m
Length of Day
9h 55m
Waning Gibbous, 79% of the Moon is Illuminated
Jan 31
Waning Gibbous
Feb 3
Last Quarter
Feb 10
New
Feb 17
First Quarter
Feb 25
Full

Hourly Weather History & Observations

Time (CST) Temp. Windchill Dew Point Humidity Pressure Visibility Wind Dir Wind Speed Gust Speed Precip Events Conditions
12:15 AM 8.6 °F -8.3 °F 3.2 °F 79% 29.81 in 9.0 mi NW 15.0 mph 23.0 mph N/A Snow Light Snow
12:35 AM 8.6 °F -8.9 °F 3.2 °F 79% 29.81 in 6.0 mi WNW 16.1 mph 26.5 mph N/A Snow Light Snow
12:55 AM 6.8 °F -10.7 °F -0.4 °F 72% 29.82 in 10.0 mi NW 15.0 mph 21.9 mph N/A Snow Light Snow
1:15 AM 6.8 °F -10.0 °F -0.4 °F 72% 29.82 in 10.0 mi NW 13.8 mph 20.7 mph N/A   Mostly Cloudy
1:35 AM 6.8 °F -11.3 °F -0.4 °F 72% 29.81 in 10.0 mi NW 16.1 mph - N/A   Overcast
1:55 AM 5.0 °F -13.0 °F -0.4 °F 78% 29.82 in 10.0 mi NW 15.0 mph - N/A   Mostly Cloudy
2:15 AM 5.0 °F -12.3 °F -0.4 °F 78% 29.82 in 10.0 mi NW 13.8 mph 20.7 mph N/A Snow Light Snow
2:35 AM 5.0 °F -13.0 °F -2.2 °F 72% 29.83 in 10.0 mi NW 15.0 mph - N/A   Light Freezing Rain
2:55 AM 5.0 °F -13.6 °F -2.2 °F 72% 29.83 in 10.0 mi WNW 16.1 mph - N/A   Overcast
3:15 AM 3.2 °F -19.5 °F -4.0 °F 72% 29.84 in 10.0 mi NW 24.2 mph - N/A   Overcast
3:35 AM 3.2 °F -17.6 °F -4.0 °F 72% 29.84 in 10.0 mi WNW 19.6 mph 25.3 mph N/A Snow Light Snow
3:55 AM 3.2 °F -16.5 °F -5.8 °F 66% 29.85 in 10.0 mi WNW 17.3 mph 25.3 mph N/A Snow Light Snow
4:15 AM 1.4 °F -20.5 °F -5.8 °F 72% 29.86 in 10.0 mi NW 20.7 mph 27.6 mph N/A Snow Light Snow
4:35 AM 1.4 °F -19.4 °F -5.8 °F 72% 29.86 in 10.0 mi NW 18.4 mph 26.5 mph N/A Snow Light Snow
4:55 AM 1.4 °F -19.4 °F -5.8 °F 72% 29.87 in 10.0 mi NW 18.4 mph - N/A   Overcast
5:15 AM 1.4 °F -18.2 °F -5.8 °F 72% 29.88 in 10.0 mi NW 16.1 mph 25.3 mph N/A Snow Light Snow
5:35 AM 1.4 °F -19.9 °F -5.8 °F 72% 29.89 in 10.0 mi NW 19.6 mph - N/A   Overcast
5:55 AM 1.4 °F -20.5 °F -5.8 °F 72% 29.89 in 10.0 mi NW 20.7 mph - N/A Snow Light Snow
6:15 AM 1.4 °F -19.9 °F -5.8 °F 72% 29.90 in 10.0 mi NNW 19.6 mph 26.5 mph N/A Snow Light Snow
6:35 AM 1.4 °F -19.9 °F -7.6 °F 66% 29.90 in 10.0 mi NNW 19.6 mph 26.5 mph N/A   Overcast
6:55 AM -0.4 °F -21.7 °F -7.6 °F 72% 29.92 in 10.0 mi NW 18.4 mph 26.5 mph N/A Snow Light Snow
7:15 AM -0.4 °F -22.8 °F -7.6 °F 72% 29.93 in 10.0 mi NW 20.7 mph - N/A   Overcast
7:35 AM -0.4 °F -19.9 °F -9.4 °F 66% 29.94 in 10.0 mi NW 15.0 mph 24.2 mph N/A   Overcast
7:55 AM -0.4 °F -21.2 °F -9.4 °F 66% 29.96 in 10.0 mi NW 17.3 mph 27.6 mph N/A Snow Light Snow
8:15 AM -0.4 °F -22.3 °F -9.4 °F 66% 29.97 in 10.0 mi NW 19.6 mph 28.8 mph N/A Snow Light Snow
8:35 AM -0.4 °F -24.3 °F -9.4 °F 66% 29.98 in 10.0 mi NW 24.2 mph 32.2 mph N/A Snow Light Snow
8:55 AM -0.4 °F -24.7 °F -9.4 °F 66% 29.99 in 10.0 mi NW 25.3 mph 32.2 mph N/A Snow Light Snow
9:15 AM -0.4 °F -22.3 °F -9.4 °F 66% 30.00 in 10.0 mi NW 19.6 mph 31.1 mph N/A Snow Light Snow
9:35 AM -0.4 °F -23.3 °F -9.4 °F 66% 30.01 in 10.0 mi NW 21.9 mph 32.2 mph N/A Snow Light Snow
9:55 AM 1.4 °F -21.4 °F -9.4 °F 61% 30.02 in 10.0 mi NNW 23.0 mph 33.4 mph N/A Snow Light Snow
10:15 AM 1.4 °F -21.4 °F -9.4 °F 61% 30.03 in 10.0 mi NW 23.0 mph 32.2 mph N/A Snow Light Snow
10:35 AM 1.4 °F -22.3 °F -11.2 °F 56% 30.04 in 10.0 mi NW 25.3 mph 32.2 mph N/A Snow Light Snow
10:55 AM 1.4 °F -22.3 °F -11.2 °F 56% 30.05 in 10.0 mi NNW 25.3 mph 34.5 mph N/A Snow Light Snow
11:15 AM 3.2 °F -19.5 °F -9.4 °F 56% 30.06 in 10.0 mi NNW 24.2 mph 34.5 mph N/A Snow Light Snow
11:35 AM 1.4 °F -22.3 °F -9.4 °F 61% 30.07 in 10.0 mi NNW 25.3 mph 35.7 mph N/A Snow Light Snow
11:55 AM 3.2 °F -19.5 °F -9.4 °F 56% 30.07 in 10.0 mi NW 24.2 mph 32.2 mph N/A Snow Light Snow
12:15 PM 3.2 °F -17.6 °F -9.4 °F 56% 30.08 in 10.0 mi NW 19.6 mph 32.2 mph N/A Snow Light Snow
12:35 PM 3.2 °F -20.3 °F -9.4 °F 56% 30.08 in 9.0 mi NW 26.5 mph 36.8 mph N/A Snow Light Snow
12:55 PM 1.4 °F -21.9 °F -9.4 °F 61% 30.09 in 7.0 mi NW 24.2 mph 32.2 mph N/A Snow Light Snow
1:15 PM 3.2 °F -18.1 °F -9.4 °F 56% 30.10 in 9.0 mi NW 20.7 mph 33.4 mph N/A Snow Light Snow
1:35 PM 1.4 °F -21.0 °F -9.4 °F 61% 30.10 in 8.0 mi NW 21.9 mph 33.4 mph N/A Snow Light Snow
1:55 PM 3.2 °F -18.6 °F -9.4 °F 56% 30.11 in 6.0 mi NW 21.9 mph 36.8 mph N/A Snow Light Snow
2:15 PM 3.2 °F -19.9 °F -7.6 °F 61% 30.11 in 7.0 mi NW 25.3 mph 33.4 mph N/A Snow Light Snow
2:35 PM 3.2 °F -19.0 °F -7.6 °F 61% 30.12 in 10.0 mi NW 23.0 mph 34.5 mph N/A Snow Light Snow
2:55 PM 3.2 °F -19.9 °F -7.6 °F 61% 30.12 in 7.0 mi NW 25.3 mph 33.4 mph N/A Snow Light Snow
3:15 PM 3.2 °F -20.3 °F -7.6 °F 61% 30.13 in 10.0 mi NW 26.5 mph 33.4 mph N/A Snow Light Snow
3:35 PM 5.0 °F -17.1 °F -7.6 °F 56% 30.14 in 10.0 mi NW 24.2 mph 35.7 mph N/A Snow Light Snow
3:55 PM 5.0 °F -17.1 °F -7.6 °F 56% 30.15 in 10.0 mi NW 24.2 mph 33.4 mph N/A Snow Light Snow
4:15 PM 3.2 °F -19.5 °F -9.4 °F 56% 30.16 in 10.0 mi NW 24.2 mph 35.7 mph N/A Snow Light Snow
4:35 PM 3.2 °F -17.6 °F -9.4 °F 56% 30.17 in 10.0 mi NW 19.6 mph 38.0 mph N/A Snow Light Snow
4:55 PM 3.2 °F -18.1 °F -9.4 °F 56% 30.18 in 10.0 mi NNW 20.7 mph 27.6 mph N/A Snow Light Snow
5:15 PM 3.2 °F -18.6 °F -9.4 °F 56% 30.18 in 10.0 mi NW 21.9 mph 29.9 mph N/A Snow Light Snow
5:35 PM 1.4 °F -19.4 °F -9.4 °F 61% 30.19 in 10.0 mi NW 18.4 mph 33.4 mph N/A Snow Light Snow
5:55 PM 1.4 °F -17.6 °F -9.4 °F 61% 30.20 in 10.0 mi NW 15.0 mph 26.5 mph N/A   Scattered Clouds
6:15 PM 1.4 °F -19.9 °F -9.4 °F 61% 30.20 in 10.0 mi NW 19.6 mph 27.6 mph N/A   Partly Cloudy
6:35 PM 1.4 °F -20.5 °F -9.4 °F 61% 30.21 in 10.0 mi NW 20.7 mph - N/A Snow Light Snow
6:55 PM -0.4 °F -21.7 °F -9.4 °F 66% 30.22 in 10.0 mi NW 18.4 mph 27.6 mph N/A Snow Light Snow
7:15 PM -0.4 °F -21.2 °F -9.4 °F 66% 30.23 in 10.0 mi NW 17.3 mph 24.2 mph N/A   Mostly Cloudy
7:35 PM -0.4 °F -21.2 °F -11.2 °F 60% 30.23 in 10.0 mi NW 17.3 mph 27.6 mph N/A Snow Light Snow
8:15 PM -2.2 °F -24.1 °F -11.2 °F 66% 30.25 in 10.0 mi NW 18.4 mph 25.3 mph N/A   Scattered Clouds
8:35 PM -2.2 °F -21.5 °F -11.2 °F 66% 30.26 in 10.0 mi NW 13.8 mph 23.0 mph N/A   Mostly Cloudy
9:15 PM -2.2 °F -22.9 °F -13.0 °F 60% 30.26 in 10.0 mi NW 16.1 mph 25.3 mph N/A Snow Light Snow
9:35 PM -4.0 °F -23.7 °F -13.0 °F 65% 30.27 in 10.0 mi NW 13.8 mph 24.2 mph N/A   Partly Cloudy
10:15 PM -4.0 °F -25.2 °F -14.8 °F 60% 30.28 in 10.0 mi NW 16.1 mph 25.3 mph N/A Snow Light Snow
10:35 PM -4.0 °F -23.0 °F -14.8 °F 60% 30.28 in 10.0 mi NW 12.7 mph 23.0 mph N/A   Partly Cloudy
10:55 PM -5.8 °F -26.8 °F -14.8 °F 65% 30.28 in 10.0 mi NW 15.0 mph 23.0 mph N/A   Clear
11:15 PM -5.8 °F -26.8 °F -14.8 °F 65% 30.28 in 10.0 mi NW 15.0 mph - N/A   Clear
11:35 PM -5.8 °F -27.5 °F -14.8 °F 65% 30.29 in 10.0 mi NW 16.1 mph - N/A   Clear
11:55 PM -5.8 °F -27.5 °F -14.8 °F 65% 30.29 in 10.0 mi NW 16.1 mph - N/A   Clear